Time;durP1;ratioP1;P1;durP2;ratioP2;P2;SDS_P1;SDS_P2;PMS_P1;PMS_P2;Temp;Humidity;BMP_temperature;BMP_pressure;BME280_temperature;BME280_humidity;BME280_pressure;Samples;Min_cycle;Max_cycle;Signal;HPM_P1;HPM_P2
2021/11/08 00:01:00;;;;;;;2.27;1.00;;;;;;;2.02;85.72;99729.63;5052595;28;20041;-69
2021/11/08 00:03:31;;;;;;;4.10;0.90;;;;;;;1.90;85.71;99714.94;5034486;28;20341;-68
2021/11/08 00:06:00;;;;;;;1.13;1.07;;;;;;;1.95;85.83;99707.50;5052715;28;20267;-67
2021/11/08 00:08:25;;;;;;;;;;;;;;;2.01;85.20;99722.72;5053418;28;20275;-68
2021/11/08 00:10:51;;;;;;;1.00;1.00;;;;;;;1.97;84.85;99716.06;5054471;28;19916;-66
2021/11/08 00:13:17;;;;;;;2.20;0.93;;;;;;;1.82;85.36;99696.41;5052491;28;20029;-66
2021/11/08 00:23:10;;;;;;;1.40;1.30;;;;;;;1.99;85.96;99711.50;5052622;28;20037;-68
2021/11/08 00:25:37;;;;;;;1.10;1.00;;;;;;;1.92;85.79;99710.41;5053250;28;20734;-68
2021/11/08 00:28:02;;;;;;;1.00;0.90;;;;;;;1.99;85.87;99716.78;5052169;28;20642;-67
2021/11/08 00:30:30;;;;;;;1.10;1.00;;;;;;;1.95;86.37;99723.25;5034441;28;20280;-69
2021/11/08 00:32:56;;;;;;;1.53;1.43;;;;;;;1.96;87.10;99716.22;5052113;28;20453;-68
2021/11/08 00:35:22;;;;;;;1.37;0.90;;;;;;;1.90;86.01;99704.44;5034710;28;20287;-70
2021/11/08 00:37:48;;;;;;;1.00;0.90;;;;;;;1.91;86.29;99700.03;5052263;28;20033;-66
2021/11/08 00:40:16;;;;;;;2.13;1.10;;;;;;;1.88;86.59;99710.81;5053881;28;20048;-67
2021/11/08 00:42:41;;;;;;;1.23;1.13;;;;;;;1.85;86.99;99702.22;5051779;28;20448;-67
2021/11/08 00:45:07;;;;;;;1.20;1.10;;;;;;;1.90;86.56;99706.25;5052406;28;20036;-67
2021/11/08 00:47:34;;;;;;;1.87;1.03;;;;;;;1.95;86.58;99707.50;5034170;28;20029;-68
2021/11/08 00:50:06;;;;;;;2.57;1.33;;;;;;;1.91;86.53;99706.09;5052218;28;20044;-67
2021/11/08 00:52:32;;;;;;;1.23;0.95;;;;;;;1.76;86.71;99700.41;5052329;28;20267;-68
2021/11/08 00:54:58;;;;;;;1.37;0.90;;;;;;;1.86;86.74;99703.06;5053117;28;20037;-65
2021/11/08 00:57:30;;;;;;;1.27;1.17;;;;;;;1.82;86.40;99706.91;5052590;28;20681;-69
2021/11/08 00:59:57;;;;;;;1.53;1.43;;;;;;;1.84;87.37;99702.38;5051909;28;20102;-68
2021/11/08 01:02:27;;;;;;;2.80;1.33;;;;;;;1.92;86.38;99710.41;5051952;28;20299;-69
2021/11/08 01:04:54;;;;;;;1.23;1.03;;;;;;;1.92;86.56;99720.91;5033998;28;20267;-69
2021/11/08 01:07:20;;;;;;;1.30;1.07;;;;;;;1.96;86.41;99716.22;5052502;28;20351;-69
2021/11/08 01:09:46;;;;;;;0.87;0.87;;;;;;;1.86;86.06;99710.94;5053666;28;20295;-68
2021/11/08 01:12:12;;;;;;;1.73;1.60;;;;;;;1.74;86.73;99694.47;5053533;28;20275;-68
2021/11/08 01:14:38;;;;;;;1.13;0.90;;;;;;;1.48;86.25;99665.19;5036106;28;20272;-69
2021/11/08 01:17:04;;;;;;;1.57;1.13;;;;;;;1.83;86.41;99709.41;5053436;28;20127;-69
2021/11/08 01:19:30;;;;;;;1.43;0.90;;;;;;;1.70;86.16;99708.78;5051791;28;20642;-69
2021/11/08 01:24:55;;;;;;;1.10;1.00;;;;;;;1.82;87.00;99718.25;5044041;28;20041;-67
2021/11/08 01:27:33;;;;;;;1.37;1.10;;;;;;;1.83;87.05;99711.19;5051645;28;20271;-68
2021/11/08 01:30:01;;;;;;;1.42;1.33;;;;;;;1.77;86.33;99724.88;5051740;28;20264;-68
2021/11/08 01:32:27;;;;;;;1.17;1.00;;;;;;;1.76;86.91;99703.03;5051854;28;20060;-68
2021/11/08 01:34:52;;;;;;;0.90;0.90;;;;;;;1.74;86.85;99698.88;5052882;28;20280;-68
2021/11/08 01:37:18;;;;;;;1.00;1.00;;;;;;;1.80;86.99;99709.69;5052288;28;20275;-67
2021/11/08 01:39:44;;;;;;;1.53;1.20;;;;;;;1.69;86.88;99690.53;5051947;28;20057;-67
2021/11/08 01:42:15;;;;;;;0.90;0.90;;;;;;;1.73;87.30;99697.19;5052065;28;20338;-68
2021/11/08 01:44:41;;;;;;;0.90;0.90;;;;;;;1.76;87.01;99710.06;5033311;28;20287;-68
2021/11/08 01:47:10;;;;;;;1.40;1.30;;;;;;;1.82;86.53;99707.75;5051371;28;20358;-68
2021/11/08 01:49:38;;;;;;;;;;;;;;;1.88;86.90;99703.75;5033859;28;20820;-72
2021/11/08 01:52:06;;;;;;;0.83;0.83;;;;;;;1.82;87.24;99701.66;5051269;28;19927;-73
2021/11/08 01:54:32;;;;;;;1.25;1.00;;;;;;;1.72;87.16;99695.53;5053893;28;20288;-73
2021/11/08 01:56:58;;;;;;;2.30;2.07;;;;;;;1.78;87.52;99705.53;5037341;28;20041;-73
2021/11/08 01:59:25;;;;;;;2.10;1.40;;;;;;;1.72;87.37;99695.53;5051470;28;20033;-73
2021/11/08 02:01:51;;;;;;;2.37;1.37;;;;;;;1.66;87.91;99703.94;5054746;28;20443;-74
2021/11/08 02:04:18;;;;;;;2.60;1.43;;;;;;;1.66;87.84;99685.56;5055106;28;20272;-71
2021/11/08 02:06:46;;;;;;;1.20;1.10;;;;;;;1.76;87.98;99717.94;5055045;28;20307;-72
2021/11/08 02:09:12;;;;;;;1.10;1.00;;;;;;;1.67;87.97;99698.56;5054908;28;20271;-72
2021/11/08 02:11:38;;;;;;;1.23;1.00;;;;;;;1.72;87.82;99712.09;5056055;28;20275;-72
2021/11/08 02:14:04;;;;;;;1.40;1.30;;;;;;;1.68;87.73;99704.63;5054698;28;20267;-71
2021/11/08 02:16:31;;;;;;;1.10;1.00;;;;;;;1.68;87.68;99707.25;5054843;28;20279;-69
2021/11/08 02:18:57;;;;;;;1.20;1.10;;;;;;;1.51;87.98;99683.31;5054830;28;20409;-70
2021/11/08 02:21:25;;;;;;;1.67;1.40;;;;;;;1.59;88.20;99698.38;5054486;28;20771;-68
2021/11/08 02:23:50;;;;;;;1.70;1.60;;;;;;;1.60;88.53;99688.72;5054608;28;20298;-69
2021/11/08 02:26:17;;;;;;;1.63;1.20;;;;;;;1.75;87.61;99711.88;5056612;28;20303;-69
2021/11/08 02:28:49;;;;;;;1.90;1.30;;;;;;;1.63;88.22;99691.91;5054356;28;20037;-69
2021/11/08 02:31:19;;;;;;;1.77;1.33;;;;;;;1.77;88.28;99709.09;5054664;28;20267;-69
2021/11/08 02:33:46;;;;;;;1.30;1.20;;;;;;;1.83;88.22;99708.56;5054336;28;20295;-69
2021/11/08 02:36:12;;;;;;;2.43;1.33;;;;;;;1.67;87.83;99681.97;5054387;28;20813;-70
2021/11/08 02:38:43;;;;;;;1.57;1.47;;;;;;;1.80;87.66;99708.84;5053984;28;20362;-70
2021/11/08 02:41:10;;;;;;;2.37;1.10;;;;;;;1.91;88.13;99724.50;5057585;28;20317;-71
2021/11/08 02:43:37;;;;;;;3.70;1.20;;;;;;;1.88;87.51;99705.53;5054075;28;20682;-72
2021/11/08 02:46:08;;;;;;;1.63;1.53;;;;;;;1.98;87.36;99733.50;5054258;28;20259;-71
2021/11/08 02:48:35;;;;;;;1.40;1.10;;;;;;;1.94;87.38;99716.34;5054242;28;20295;-71
2021/11/08 02:51:10;;;;;;;1.37;1.20;;;;;;;1.99;87.21;99729.91;5036128;28;20706;-69
2021/11/08 02:53:37;;;;;;;1.97;1.20;;;;;;;1.98;87.30;99712.47;5053912;28;20838;-67
2021/11/08 02:56:04;;;;;;;1.53;1.30;;;;;;;2.03;87.25;99718.19;5056268;28;20639;-67
2021/11/08 02:58:30;;;;;;;2.33;1.23;;;;;;;1.82;87.33;99671.00;5054086;28;20350;-68
2021/11/08 03:00:57;;;;;;;1.57;1.13;;;;;;;2.09;87.74;99715.03;5053741;28;20386;-68
2021/11/08 03:03:29;;;;;;;2.80;1.43;;;;;;;2.03;86.61;99705.06;5035833;28;20037;-67
2021/11/08 03:06:03;;;;;;;3.10;1.67;;;;;;;2.12;87.41;99716.53;5053779;28;20807;-68
2021/11/08 03:08:29;;;;;;;1.77;1.67;;;;;;;2.13;87.39;99732.16;5053896;28;20271;-68
2021/11/08 03:10:56;;;;;;;2.17;1.50;;;;;;;2.16;86.92;99716.13;5057634;28;20369;-71
2021/11/08 03:13:24;;;;;;;1.67;1.57;;;;;;;2.13;86.80;99729.53;5053732;28;20049;-72
2021/11/08 03:18:28;;;;;;;3.63;1.80;;;;;;;2.06;87.04;99711.84;5053433;28;20836;-71
2021/11/08 03:20:54;;;;;;;4.13;2.23;;;;;;;2.09;86.92;99715.03;5052540;28;20045;-71
2021/11/08 03:23:21;;;;;;;1.73;1.23;;;;;;;2.13;86.39;99716.41;5035771;28;20303;-71
2021/11/08 03:28:24;;;;;;;1.97;1.20;;;;;;;2.18;86.82;99740.47;5053662;28;20263;-71
2021/11/08 03:30:50;;;;;;;1.57;1.20;;;;;;;1.97;87.09;99702.94;5053179;28;20321;-71
2021/11/08 03:33:17;;;;;;;1.20;1.10;;;;;;;2.18;86.94;99748.34;5035545;28;20079;-70
2021/11/08 03:35:43;;;;;;;3.93;1.53;;;;;;;2.10;85.65;99732.44;5052986;28;20661;-71
2021/11/08 03:38:13;;;;;;;1.10;1.00;;;;;;;2.15;86.50;99747.78;5053291;28;20263;-72
2021/11/08 03:40:44;;;;;;;1.20;1.10;;;;;;;2.16;86.54;99752.91;5054600;28;20755;-70
2021/11/08 03:43:13;;;;;;;1.13;1.07;;;;;;;2.12;86.99;99751.53;5054542;28;20275;-71
2021/11/08 03:45:38;;;;;;;;;;;;;;;2.17;86.50;99748.50;5053503;28;20271;-72
2021/11/08 03:48:07;;;;;;;1.27;1.10;;;;;;;2.12;86.08;99755.94;5036093;28;20307;-71
2021/11/08 03:50:33;;;;;;;2.08;1.30;;;;;;;2.05;86.85;99741.69;5053137;28;20119;-71
2021/11/08 03:52:58;;;;;;;1.47;1.37;;;;;;;2.10;86.12;99753.44;5052707;28;20121;-66
2021/11/08 03:55:27;;;;;;;2.00;1.40;;;;;;;2.09;86.44;99762.31;5036109;28;20290;-68
2021/11/08 03:57:53;;;;;;;2.00;1.37;;;;;;;2.01;86.42;99746.34;5036330;28;20488;-65
2021/11/08 04:00:22;;;;;;;2.37;1.50;;;;;;;1.99;87.32;99750.91;5052454;28;20033;-66
2021/11/08 04:02:48;;;;;;;1.52;1.42;;;;;;;2.07;87.51;99764.22;5052776;28;20087;-67
2021/11/08 04:05:16;;;;;;;1.90;1.70;;;;;;;2.03;87.14;99765.47;5052725;28;20523;-64
2021/11/08 04:07:43;;;;;;;2.58;1.45;;;;;;;1.98;86.39;99751.88;5034988;28;20260;-64
2021/11/08 04:10:11;;;;;;;3.73;1.43;;;;;;;1.99;87.10;99761.41;5052631;28;20118;-61
2021/11/08 04:12:37;;;;;;;1.53;1.43;;;;;;;2.00;87.00;99767.50;5053177;28;20272;-60
2021/11/08 04:15:10;;;;;;;1.53;1.27;;;;;;;2.03;87.56;99778.59;5034663;28;20268;-60
2021/11/08 04:17:42;;;;;;;1.73;1.23;;;;;;;1.95;87.41;99762.63;5052943;28;20259;-59
2021/11/08 04:20:08;;;;;;;2.30;1.60;;;;;;;2.00;87.27;99778.00;5052546;28;20841;-61
2021/11/08 04:22:34;;;;;;;1.83;1.73;;;;;;;1.88;87.10;99763.31;5051621;28;20334;-62
2021/11/08 04:25:00;;;;;;;1.37;1.23;;;;;;;1.95;87.50;99775.78;5034482;28;20299;-62
2021/11/08 04:27:26;;;;;;;1.30;1.17;;;;;;;1.85;87.47;99775.72;5053936;28;20112;-61
2021/11/08 04:29:52;;;;;;;3.00;1.90;;;;;;;1.83;87.20;99772.41;5052086;28;20322;-60
2021/11/08 04:32:18;;;;;;;2.40;1.40;;;;;;;1.86;87.12;99781.81;5052395;28;20037;-64
2021/11/08 04:35:02;;;;;;;1.67;1.30;;;;;;;1.81;87.12;99797.13;5052134;28;20264;-62
2021/11/08 04:42:54;;;;;;;1.50;1.30;;;;;;;1.64;88.11;99787.22;5053840;28;20813;-60
2021/11/08 04:50:58;;;;;;;2.33;1.47;;;;;;;1.75;87.96;99795.03;5052203;28;20359;-62
2021/11/08 04:53:31;;;;;;;1.43;1.33;;;;;;;1.69;88.01;99787.66;5051763;28;20499;-62
2021/11/08 05:30:58;;;;;;;1.40;1.30;;;;;;;1.67;88.09;99847.31;5051410;28;20299;-62
2021/11/08 05:33:23;;;;;;;3.10;2.10;;;;;;;1.62;88.51;99834.59;5051822;28;20275;-64
2021/11/08 05:35:49;;;;;;;3.53;2.20;;;;;;;1.69;88.36;99848.03;5035830;28;20337;-62
2021/11/08 05:38:15;;;;;;;2.83;1.80;;;;;;;1.72;88.38;99866.13;5038606;28;20124;-62
2021/11/08 05:40:42;;;;;;;2.33;1.53;;;;;;;1.59;88.64;99842.72;5060115;28;20057;-64
2021/11/08 05:43:08;;;;;;;3.03;1.70;;;;;;;1.60;88.60;99851.44;5067525;28;20782;-62
2021/11/08 05:45:39;;;;;;;1.47;1.33;;;;;;;1.68;88.78;99855.06;5068453;28;20892;-66
2021/11/08 05:48:06;;;;;;;1.63;1.53;;;;;;;1.62;88.40;99846.88;5059460;28;20062;-69
2021/11/08 05:50:34;;;;;;;2.53;1.40;;;;;;;1.12;88.16;99765.31;5028479;28;20283;-64
2021/11/08 05:53:01;;;;;;;1.40;1.30;;;;;;;1.71;87.94;99851.34;5035914;28;20349;-62
2021/11/08 05:55:40;;;;;;;1.50;1.40;;;;;;;1.72;87.68;99874.84;5035832;28;20268;-62
2021/11/08 05:58:17;;;;;;;1.63;1.50;;;;;;;1.73;87.83;99873.06;5036476;28;20298;-59
2021/11/08 06:50:13;;;;;;;2.50;2.30;;;;;;;1.65;88.34;99948.97;5015827;28;20281;-60
2021/11/08 06:52:39;;;;;;;2.33;1.70;;;;;;;1.59;88.03;99946.88;5034009;28;20666;-59
2021/11/08 06:55:06;;;;;;;3.10;2.40;;;;;;;1.67;87.23;99960.19;5033850;28;20271;-58
2021/11/08 06:57:45;;;;;;;2.30;1.87;;;;;;;1.60;87.76;99954.63;5035943;28;20280;-61
2021/11/08 07:00:16;;;;;;;3.97;2.30;;;;;;;1.29;87.73;99903.78;5016248;28;20647;-61
2021/11/08 07:02:42;;;;;;;2.00;1.67;;;;;;;1.65;88.20;99973.44;5033859;28;20303;-60
2021/11/08 07:05:08;;;;;;;2.47;2.27;;;;;;;1.65;87.91;99983.94;5016050;28;20041;-61
2021/11/08 07:07:33;;;;;;;3.17;1.73;;;;;;;1.66;88.18;99992.63;5033594;28;20053;-62
2021/11/08 07:09:59;;;;;;;2.63;1.80;;;;;;;1.63;88.24;99971.91;5034002;28;21076;-58
2021/11/08 07:12:25;;;;;;;1.97;1.83;;;;;;;1.68;87.72;99967.94;5035109;28;20074;-60
2021/11/08 07:14:50;;;;;;;6.03;2.83;;;;;;;1.72;88.00;99984.25;5032610;28;20033;-60
2021/11/08 07:17:16;;;;;;;1.80;1.70;;;;;;;1.75;87.38;99992.75;5033057;28;20094;-60
2021/11/08 07:19:41;;;;;;;1.60;1.50;;;;;;;1.68;87.48;99980.22;5033130;28;20034;-61
2021/11/08 07:22:07;;;;;;;3.43;1.60;;;;;;;1.66;87.13;99988.22;5032919;28;20123;-58
2021/11/08 07:24:33;;;;;;;1.60;1.50;;;;;;;1.73;87.03;99996.44;5033346;28;20116;-59
2021/11/08 07:26:59;;;;;;;2.43;1.80;;;;;;;1.62;87.30;100020.09;5018311;28;20608;-60
2021/11/08 07:29:26;;;;;;;1.87;1.73;;;;;;;1.68;87.50;100012.56;5033697;28;20040;-62
2021/11/08 07:31:52;;;;;;;4.23;1.90;;;;;;;1.66;87.51;100008.38;5033551;28;20071;-60
2021/11/08 07:34:18;;;;;;;1.80;1.70;;;;;;;1.72;87.33;100029.72;5033286;28;20275;-59
2021/11/08 07:36:43;;;;;;;1.70;1.60;;;;;;;1.61;87.39;100007.94;5032650;28;20268;-59
2021/11/08 07:39:13;;;;;;;1.70;1.53;;;;;;;1.75;87.71;100039.16;5031912;28;20069;-60
2021/11/08 07:41:40;;;;;;;1.80;1.70;;;;;;;1.79;87.61;100041.41;5034244;28;20144;-59
2021/11/08 07:44:06;;;;;;;2.20;2.03;;;;;;;1.53;87.14;99995.44;5033626;28;20631;-59
2021/11/08 07:46:31;;;;;;;2.10;1.90;;;;;;;1.57;87.18;100027.50;5033200;28;20254;-60
2021/11/08 07:48:57;;;;;;;2.40;2.20;;;;;;;1.48;86.70;100035.19;5033101;28;20374;-60
2021/11/08 07:51:22;;;;;;;3.90;2.27;;;;;;;1.72;86.97;100061.22;5032543;28;20041;-59
2021/11/08 07:53:49;;;;;;;3.03;2.13;;;;;;;1.67;87.05;100070.44;5032240;28;20037;-57
2021/11/08 07:56:15;;;;;;;2.47;2.27;;;;;;;1.53;86.90;100059.25;5015516;28;20079;-58
2021/11/08 07:58:40;;;;;;;2.63;2.10;;;;;;;1.60;86.98;100070.09;5032860;28;20268;-59
2021/11/08 08:01:09;;;;;;;2.40;2.17;;;;;;;1.67;87.32;100092.25;5011657;28;20304;-57
2021/11/08 08:03:36;;;;;;;2.57;2.37;;;;;;;1.59;86.67;100089.41;5030693;28;20029;-59
2021/11/08 08:06:03;;;;;;;3.30;2.53;;;;;;;1.55;87.60;100085.38;5011655;28;20679;-64
2021/11/08 08:08:30;;;;;;;4.00;2.37;;;;;;;1.55;87.58;100088.84;5011494;28;20307;-61
2021/11/08 08:10:56;;;;;;;1.50;1.40;;;;;;;1.57;86.89;100090.50;5033230;28;20343;-58
2021/11/08 08:13:28;;;;;;;2.70;2.00;;;;;;;1.51;87.08;100087.41;5033941;28;20719;-59
2021/11/08 08:15:58;;;;;;;2.20;2.00;;;;;;;1.50;86.31;100096.25;5032595;28;20037;-58
2021/11/08 08:18:25;;;;;;;2.30;2.10;;;;;;;1.54;86.79;100113.41;5032352;28;20272;-60
2021/11/08 08:20:51;;;;;;;4.33;1.73;;;;;;;1.58;86.34;100114.00;5032428;28;20346;-60
2021/11/08 08:23:17;;;;;;;2.13;1.60;;;;;;;1.64;86.56;100133.66;5031326;28;20307;-59
2021/11/08 08:25:43;;;;;;;2.20;1.83;;;;;;;1.66;86.79;100134.38;5032507;28;20480;-60
2021/11/08 08:28:09;;;;;;;1.70;1.60;;;;;;;1.59;86.27;100105.16;5000252;28;20033;-62
2021/11/08 08:30:35;;;;;;;2.30;2.03;;;;;;;1.63;86.20;100147.75;5029968;28;20264;-59
2021/11/08 08:33:00;;;;;;;2.00;1.80;;;;;;;1.51;86.30;100139.91;5013934;28;20041;-55
2021/11/08 08:35:26;;;;;;;2.23;2.03;;;;;;;1.48;86.51;100144.56;5031659;28;20045;-58
2021/11/08 08:37:51;;;;;;;2.50;2.03;;;;;;;1.58;86.61;100157.78;5031495;28;20408;-57
2021/11/08 08:40:18;;;;;;;2.90;2.00;;;;;;;1.58;85.89;100160.41;5031349;28;20497;-60
2021/11/08 08:42:44;;;;;;;2.00;1.67;;;;;;;1.58;86.10;100161.25;5035110;28;20064;-60
2021/11/08 08:45:11;;;;;;;2.53;2.00;;;;;;;1.50;86.32;100147.88;5032277;28;20639;-62
2021/11/08 08:47:37;;;;;;;2.57;2.03;;;;;;;1.59;86.47;100175.19;5014269;28;20076;-57
2021/11/08 08:50:05;;;;;;;3.40;2.03;;;;;;;1.54;87.20;100171.16;5032246;28;20276;-58
2021/11/08 08:52:30;;;;;;;2.67;2.10;;;;;;;1.51;85.96;100166.13;5032233;28;20275;-57
2021/11/08 08:54:56;;;;;;;4.40;1.90;;;;;;;1.64;86.23;100173.88;4998921;28;20037;-62
2021/11/08 08:57:21;;;;;;;2.77;1.90;;;;;;;1.63;86.34;100181.88;5034977;28;20052;-62
2021/11/08 08:59:47;;;;;;;4.17;1.60;;;;;;;1.60;86.46;100185.56;5034869;28;20065;-56
2021/11/08 09:02:13;;;;;;;4.93;3.97;;;;;;;1.65;86.03;100198.34;5031612;28;20053;-58
2021/11/08 09:07:18;;;;;;;2.10;1.90;;;;;;;1.65;85.69;100199.16;4567817;26;20420;-66
2021/11/08 09:09:44;;;;;;;3.73;1.70;;;;;;;1.62;85.45;100211.69;4969896;28;20282;-69
2021/11/08 09:12:10;;;;;;;3.37;1.80;;;;;;;1.60;85.89;100216.22;4972940;28;20274;-67
2021/11/08 09:14:37;;;;;;;3.93;1.93;;;;;;;1.54;86.73;100209.66;4973408;28;20030;-65
2021/11/08 09:17:03;;;;;;;2.00;1.90;;;;;;;1.58;86.34;100220.75;4973244;28;20089;-63
2021/11/08 09:19:29;;;;;;;2.13;1.70;;;;;;;1.62;86.32;100236.16;4972981;28;20294;-65
2021/11/08 09:21:55;;;;;;;1.93;1.70;;;;;;;1.51;85.91;100234.38;4973067;28;20325;-62
2021/11/08 09:24:22;;;;;;;1.90;1.80;;;;;;;1.51;86.70;100241.41;4972519;28;20034;-57
2021/11/08 09:26:49;;;;;;;2.47;2.20;;;;;;;1.49;86.67;100245.94;4972655;28;20043;-62
2021/11/08 09:29:16;;;;;;;2.07;1.87;;;;;;;1.46;86.37;100254.88;4973105;28;20262;-60
2021/11/08 09:31:43;;;;;;;3.00;2.10;;;;;;;1.41;86.33;100245.66;4973012;28;20274;-65
2021/11/08 09:34:10;;;;;;;3.27;1.97;;;;;;;1.37;86.63;100244.22;4972642;28;20290;-59
2021/11/08 09:36:37;;;;;;;3.30;1.60;;;;;;;1.45;86.48;100274.19;4973041;28;20764;-61
2021/11/08 09:39:09;;;;;;;3.30;1.63;;;;;;;1.25;86.46;100251.25;4971761;28;20270;-65
2021/11/08 09:41:37;;;;;;;1.47;1.30;;;;;;;1.24;85.75;100260.91;4972658;28;20298;-66
2021/11/08 09:44:52;;;;;;;3.30;1.80;;;;;;;1.33;86.14;100276.91;5130634;27;20338;-64
2021/11/08 09:47:18;;;;;;;1.50;1.40;;;;;;;1.23;85.79;100263.66;5109544;28;20290;-62
2021/11/08 09:49:49;;;;;;;1.30;1.20;;;;;;;1.27;85.13;100296.56;5109366;28;20276;-65
2021/11/08 09:52:16;;;;;;;2.13;1.63;;;;;;;1.28;86.03;100290.38;5110170;28;20462;-64
2021/11/08 09:54:43;;;;;;;1.97;1.43;;;;;;;1.29;85.96;100306.94;5110834;28;20297;-65
2021/11/08 09:57:11;;;;;;;2.03;1.60;;;;;;;1.32;85.76;100312.78;5109721;28;20289;-65
2021/11/08 09:59:37;;;;;;;3.20;1.60;;;;;;;1.26;85.45;100297.50;5109587;28;20330;-65
2021/11/08 10:02:11;;;;;;;1.70;1.60;;;;;;;1.33;85.27;100314.47;5109602;28;20265;-68
2021/11/08 10:04:36;;;;;;;2.23;1.77;;;;;;;1.29;84.87;100310.41;5109366;28;20419;-64
2021/11/08 10:07:03;;;;;;;1.80;1.70;;;;;;;1.04;85.15;100282.53;5109690;28;20822;-63
2021/11/08 10:09:29;;;;;;;4.30;1.90;;;;;;;1.22;84.90;100322.31;5109250;28;20039;-62
2021/11/08 10:11:56;;;;;;;1.73;1.63;;;;;;;1.30;84.90;100333.06;5109328;28;20265;-64
2021/11/08 10:14:22;;;;;;;2.70;2.50;;;;;;;1.24;85.26;100315.16;5090848;28;20028;-61
2021/11/08 10:16:50;;;;;;;1.67;1.57;;;;;;;1.31;84.01;100328.66;5090731;28;20262;-64
2021/11/08 10:19:21;;;;;;;2.20;2.00;;;;;;;1.29;84.89;100327.94;5109282;28;20066;-64
2021/11/08 10:21:54;;;;;;;2.30;2.10;;;;;;;1.32;84.96;100340.81;5109219;28;20123;-63
2021/11/08 10:24:32;;;;;;;1.67;1.57;;;;;;;1.35;83.88;100343.22;5108909;28;20300;-61
2021/11/08 10:27:01;;;;;;;2.40;1.87;;;;;;;1.36;84.28;100374.56;5108934;28;20326;-62
2021/11/08 10:29:27;;;;;;;3.10;1.60;;;;;;;1.31;84.17;100366.22;5108940;28;20353;-61
2021/11/08 10:31:57;;;;;;;5.37;2.07;;;;;;;1.36;84.71;100345.72;5074026;28;20360;-61
2021/11/08 10:34:24;;;;;;;1.70;1.60;;;;;;;1.38;84.74;100361.34;5109554;28;20115;-68
2021/11/08 10:37:02;;;;;;;4.17;1.70;;;;;;;1.49;84.32;100379.78;5073968;28;20274;-58
2021/11/08 10:39:28;;;;;;;1.90;1.47;;;;;;;1.45;82.86;100381.78;5090597;28;20306;-55
2021/11/08 10:41:55;;;;;;;2.57;1.57;;;;;;;1.43;83.20;100395.94;5108877;28;20262;-62
2021/11/08 10:44:23;;;;;;;1.70;1.40;;;;;;;1.36;83.27;100403.44;5092211;28;20342;-58
2021/11/08 10:47:10;;;;;;;1.85;1.67;;;;;;;1.36;82.85;100405.22;5088221;28;20759;-53
2021/11/08 10:49:41;;;;;;;1.50;1.27;;;;;;;1.23;82.27;100392.19;5088799;28;20051;-54
2021/11/08 10:52:07;;;;;;;1.80;1.57;;;;;;;1.23;82.74;100407.91;5088742;28;20250;-53
2021/11/08 10:54:38;;;;;;;2.23;1.40;;;;;;;1.15;82.67;100410.25;5084232;28;20737;-57
2021/11/08 10:57:07;;;;;;;2.70;1.50;;;;;;;1.20;82.56;100422.09;5075208;28;20040;-53
2021/11/08 10:59:42;;;;;;;1.50;1.40;;;;;;;0.95;80.34;100416.94;5074969;28;20784;-52
2021/11/08 11:02:09;;;;;;;1.60;1.50;;;;;;;1.04;81.15;100433.78;5075132;28;20271;-58
2021/11/08 11:04:45;;;;;;;1.37;1.27;;;;;;;1.05;81.04;100446.78;5074781;28;20290;-59
2021/11/08 11:07:18;;;;;;;1.27;1.17;;;;;;;1.00;80.52;100458.56;5074958;28;20621;-54
2021/11/08 11:09:44;;;;;;;1.50;1.40;;;;;;;1.01;80.24;100465.47;5056622;28;20645;-55
2021/11/08 11:12:17;;;;;;;2.23;1.77;;;;;;;1.00;80.18;100461.19;5056387;28;20324;-56
2021/11/08 11:14:58;;;;;;;3.67;1.73;;;;;;;0.87;80.40;100441.09;5074531;28;20270;-52
2021/11/08 11:17:28;;;;;;;2.97;1.70;;;;;;;1.06;80.06;100461.56;5074509;28;20267;-54
2021/11/08 11:20:08;;;;;;;1.83;1.50;;;;;;;1.06;79.17;100463.34;5074454;28;20267;-57
2021/11/08 11:22:36;;;;;;;1.97;1.50;;;;;;;0.88;79.20;100447.16;5056483;28;20336;-58
2021/11/08 11:25:07;;;;;;;4.40;1.77;;;;;;;1.05;80.15;100477.41;5074318;28;20285;-58
2021/11/08 11:27:38;;;;;;;3.13;1.83;;;;;;;1.06;80.41;100498.28;5074784;28;20051;-58
2021/11/08 11:30:06;;;;;;;5.53;2.50;;;;;;;1.12;80.36;100502.25;5074442;28;20349;-58
2021/11/08 11:32:33;;;;;;;3.60;1.75;;;;;;;1.02;80.19;100504.69;5055862;28;20263;-57
2021/11/08 11:34:58;;;;;;;2.77;1.90;;;;;;;0.98;79.82;100502.41;5074104;28;20040;-53
2021/11/08 11:37:27;;;;;;;5.23;1.90;;;;;;;0.98;79.91;100502.41;5074420;28;20262;-56
2021/11/08 11:40:22;;;;;;;2.70;1.88;;;;;;;1.09;79.95;100510.34;5073982;28;20376;-59
2021/11/08 11:43:03;;;;;;;3.70;1.83;;;;;;;1.01;78.65;100523.16;5053032;28;20433;-56
2021/11/08 11:45:51;;;;;;;2.43;1.47;;;;;;;0.98;77.59;100536.50;5074361;28;20769;-61
2021/11/08 11:48:19;;;;;;;1.45;1.35;;;;;;;0.93;77.82;100542.91;5073898;28;20289;-63
2021/11/08 11:50:45;;;;;;;12.63;3.83;;;;;;;0.89;78.20;100544.06;5073919;28;20036;-67
2021/11/08 11:53:11;;;;;;;1.97;1.50;;;;;;;0.97;76.49;100568.91;5074155;28;20277;-65
2021/11/08 11:55:38;;;;;;;5.97;1.77;;;;;;;0.66;76.08;100518.59;5073859;28;20271;-66
2021/11/08 11:58:05;;;;;;;4.63;1.77;;;;;;;0.91;75.99;100571.00;5073714;28;20270;-67
2021/11/08 12:00:34;;;;;;;2.37;1.77;;;;;;;0.95;75.82;100579.50;5073463;28;20279;-63
2021/11/08 12:03:00;;;;;;;2.70;1.60;;;;;;;0.91;75.44;100571.00;5073414;28;20321;-65
2021/11/08 12:05:29;;;;;;;3.57;2.07;;;;;;;0.98;75.91;100586.31;5073198;28;20769;-65
2021/11/08 12:07:57;;;;;;;1.85;1.50;;;;;;;0.89;75.86;100575.53;5072281;28;20479;-65
2021/11/08 12:10:22;;;;;;;2.67;2.30;;;;;;;0.98;76.15;100596.81;5073284;28;20070;-70
2021/11/08 12:12:49;;;;;;;2.70;1.37;;;;;;;1.02;76.98;100598.28;5073230;28;20262;-63
2021/11/08 12:15:24;;;;;;;2.83;2.00;;;;;;;0.98;76.45;100595.03;5072901;28;20044;-56
2021/11/08 12:17:50;;;;;;;1.60;1.50;;;;;;;1.05;75.42;100619.88;5072743;28;20259;-61
2021/11/08 12:20:24;;;;;;;4.27;1.97;;;;;;;1.03;75.30;100631.41;5073166;28;20259;-62
2021/11/08 12:22:50;;;;;;;7.10;2.47;;;;;;;1.01;75.26;100628.06;5072022;28;20029;-62
2021/11/08 12:25:24;;;;;;;1.60;1.43;;;;;;;1.01;75.37;100635.94;5072120;28;20259;-61
2021/11/08 12:27:52;;;;;;;3.03;1.57;;;;;;;1.01;75.67;100628.91;5072691;28;20350;-63
2021/11/08 12:30:20;;;;;;;3.50;1.50;;;;;;;0.98;74.52;100638.75;5072185;28;20263;-61
2021/11/08 12:33:16;;;;;;;1.55;1.45;;;;;;;1.01;75.33;100651.66;5072279;28;20270;-62
2021/11/08 12:35:42;;;;;;;4.70;1.70;;;;;;;0.98;74.44;100664.97;5041987;28;20046;-61
2021/11/08 12:38:19;;;;;;;2.50;1.57;;;;;;;0.92;74.33;100653.13;5072487;28;20267;-61
2021/11/08 12:40:46;;;;;;;3.23;1.90;;;;;;;0.96;73.72;100672.97;5072565;28;20039;-60
2021/11/08 12:43:25;;;;;;;5.93;1.93;;;;;;;0.91;72.84;100673.28;5072390;28;20305;-64
2021/11/08 12:45:50;;;;;;;;;;;;;;;0.90;73.36;100679.47;5072756;28;20290;-68
2021/11/08 12:48:17;;;;;;;3.10;1.93;;;;;;;0.83;72.27;100669.47;5072571;28;19916;-65
2021/11/08 12:50:44;;;;;;;2.47;1.50;;;;;;;0.82;71.62;100686.97;5072107;28;20075;-66
2021/11/08 12:53:22;;;;;;;4.30;2.27;;;;;;;0.78;72.31;100692.53;5072138;28;20279;-70
2021/11/08 12:55:48;;;;;;;1.40;1.30;;;;;;;0.68;71.30;100694.09;5072472;28;20637;-65
2021/11/08 12:58:14;;;;;;;2.90;1.77;;;;;;;0.69;71.64;100703.63;5072571;28;20029;-72
2021/11/08 13:00:42;;;;;;;1.87;1.33;;;;;;;0.64;69.93;100703.94;5072112;28;20040;-62
2021/11/08 13:03:14;;;;;;;1.90;1.45;;;;;;;0.68;70.98;100705.41;5072068;28;20054;-62
2021/11/08 13:05:48;;;;;;;1.80;1.50;;;;;;;0.62;70.61;100726.78;5072188;28;20048;-63
2021/11/08 13:08:24;;;;;;;3.27;1.60;;;;;;;0.60;71.27;100731.28;5071977;28;20337;-63
2021/11/08 13:10:59;;;;;;;3.20;1.50;;;;;;;0.59;71.33;100727.00;5054200;28;20266;-60
2021/11/08 13:13:25;;;;;;;2.07;1.40;;;;;;;0.55;70.61;100746.44;5071963;28;20370;-60
2021/11/08 13:15:59;;;;;;;1.73;1.50;;;;;;;0.33;71.14;100725.22;5071924;28;20263;-60
2021/11/08 13:18:35;;;;;;;2.07;1.60;;;;;;;0.47;70.95;100753.97;5071437;28;20259;-59
2021/11/08 13:21:00;;;;;;;1.93;1.47;;;;;;;0.37;71.19;100752.88;5071777;28;20355;-59
2021/11/08 13:23:28;;;;;;;3.37;1.60;;;;;;;0.35;70.30;100767.88;5071447;28;20302;-59
2021/11/08 13:25:56;;;;;;;1.63;1.30;;;;;;;0.27;69.85;100763.94;5071419;28;20299;-61
2021/11/08 13:28:28;;;;;;;2.50;1.60;;;;;;;0.29;70.15;100793.50;5053303;28;20318;-61
2021/11/08 13:30:58;;;;;;;2.30;1.63;;;;;;;0.26;69.16;100785.81;5072064;28;20266;-61
2021/11/08 13:33:33;;;;;;;2.23;1.90;;;;;;;0.23;68.20;100799.09;5071843;28;20810;-60
2021/11/08 13:36:00;;;;;;;3.80;1.60;;;;;;;0.19;69.07;100802.84;5071802;28;20271;-60
2021/11/08 13:38:31;;;;;;;3.70;1.70;;;;;;;0.18;68.62;100814.28;5071658;28;20286;-60